Time;durP1;ratioP1;P1;durP2;ratioP2;P2;SDS_P1;SDS_P2;PMS_P1;PMS_P2;Temp;Humidity;BMP_temperature;BMP_pressure;BME280_temperature;BME280_humidity;BME280_pressure;Samples;Min_cycle;Max_cycle;Signal;HPM_P1;HPM_P2
2022/03/08 00:00:29;;;;;;;7.85;3.15;;;;;;;7.36;34.96;101995.78;5016826;28;20125;-75
2022/03/08 00:02:57;;;;;;;8.73;2.80;;;;;;;7.26;35.17;101984.09;5014574;28;20042;-76
2022/03/08 00:05:24;;;;;;;8.00;2.72;;;;;;;7.28;34.90;101988.34;5014096;28;20078;-76
2022/03/08 00:07:51;;;;;;;6.63;2.85;;;;;;;7.25;35.33;101993.03;5020787;28;20128;-75
2022/03/08 00:10:18;;;;;;;9.63;3.60;;;;;;;7.13;35.58;101976.94;5013447;28;20133;-75
2022/03/08 00:12:48;;;;;;;10.30;3.78;;;;;;;7.18;35.66;101977.44;5019590;28;20128;-75
2022/03/08 00:15:19;;;;;;;14.10;4.45;;;;;;;7.29;35.37;101978.50;5013553;28;20049;-76
2022/03/08 00:17:47;;;;;;;9.15;3.83;;;;;;;7.42;35.08;101976.69;5014365;28;20100;-76
2022/03/08 00:20:14;;;;;;;10.52;3.60;;;;;;;7.36;35.34;101969.09;4997687;28;20514;-76
2022/03/08 00:22:41;;;;;;;8.68;3.22;;;;;;;7.23;35.59;101977.13;5013720;28;20042;-76
2022/03/08 00:25:09;;;;;;;12.27;3.30;;;;;;;7.22;35.76;101971.91;5015675;28;20053;-76
2022/03/08 00:27:36;;;;;;;8.63;2.78;;;;;;;7.26;35.74;101979.59;5016276;28;20399;-76
2022/03/08 00:30:06;;;;;;;6.15;2.85;;;;;;;7.26;35.29;101971.59;5023508;28;20053;-76
2022/03/08 00:32:33;;;;;;;6.77;3.20;;;;;;;7.32;35.61;101980.97;5033451;28;20065;-76
2022/03/08 00:35:00;;;;;;;12.18;3.55;;;;;;;7.38;35.33;101964.50;5033819;28;20136;-76
2022/03/08 00:37:26;;;;;;;7.88;3.30;;;;;;;7.25;35.40;101975.19;5026512;28;20061;-76
2022/03/08 00:39:52;;;;;;;6.53;3.30;;;;;;;7.31;35.35;101977.44;5029329;28;20099;-76
2022/03/08 00:42:20;;;;;;;10.40;3.25;;;;;;;7.30;35.42;101991.75;5013809;28;20128;-75
2022/03/08 00:44:46;;;;;;;9.32;3.30;;;;;;;7.34;35.38;101990.56;5013985;28;20508;-75
2022/03/08 00:47:13;;;;;;;8.38;3.70;;;;;;;7.31;35.66;101992.59;5017095;28;20045;-75
2022/03/08 00:49:40;;;;;;;9.15;3.47;;;;;;;7.27;35.62;101991.13;5027404;28;20136;-75
2022/03/08 00:52:08;;;;;;;7.28;3.60;;;;;;;7.28;35.77;101992.81;5034116;28;20394;-75
2022/03/08 00:54:35;;;;;;;12.13;3.55;;;;;;;7.18;35.76;101976.59;5021044;28;20141;-75
2022/03/08 00:57:04;;;;;;;8.55;3.17;;;;;;;7.24;35.51;101981.50;5026144;28;20052;-75
2022/03/08 00:59:30;;;;;;;8.10;3.33;;;;;;;7.14;35.65;101965.28;5027558;28;20095;-75
2022/03/08 01:01:56;;;;;;;11.00;3.78;;;;;;;7.17;35.65;101973.06;5016189;28;20129;-75
2022/03/08 01:04:23;;;;;;;9.50;3.65;;;;;;;7.20;35.64;101974.69;5032667;28;20485;-75
2022/03/08 01:06:50;;;;;;;7.20;3.65;;;;;;;7.11;35.79;101986.84;5027002;28;20434;-75
2022/03/08 01:09:16;;;;;;;12.48;3.88;;;;;;;7.07;36.06;101979.16;5031687;28;20076;-75
2022/03/08 01:11:43;;;;;;;10.27;3.78;;;;;;;7.02;36.12;101982.16;5022013;28;20095;-75
2022/03/08 01:14:10;;;;;;;8.95;3.70;;;;;;;7.13;36.13;101973.41;5021824;28;20072;-75
2022/03/08 01:16:36;;;;;;;11.02;3.65;;;;;;;7.04;36.04;101972.22;5032763;28;20054;-75
2022/03/08 01:19:05;;;;;;;10.32;4.05;;;;;;;7.04;36.10;101968.69;5029925;28;20045;-75
2022/03/08 01:21:36;;;;;;;11.23;4.88;;;;;;;7.05;35.99;101965.06;5022656;28;20049;-75
2022/03/08 01:24:04;;;;;;;10.80;4.47;;;;;;;7.01;36.00;101956.41;5020370;28;20080;-75
2022/03/08 01:26:31;;;;;;;10.30;4.22;;;;;;;6.98;36.02;101970.00;5031825;28;20051;-75
2022/03/08 01:28:57;;;;;;;10.55;4.65;;;;;;;6.95;36.12;101960.38;5017971;28;20136;-75
2022/03/08 01:31:24;;;;;;;8.57;4.00;;;;;;;6.91;36.10;101963.34;5013244;28;20069;-75
2022/03/08 01:33:50;;;;;;;9.57;4.63;;;;;;;6.91;36.10;101966.00;5024673;28;20497;-75
2022/03/08 01:36:17;;;;;;;10.45;4.47;;;;;;;6.84;36.36;101965.63;5030427;28;20049;-75
2022/03/08 01:38:43;;;;;;;18.10;5.20;;;;;;;6.80;36.13;101963.25;5021070;28;20141;-75
2022/03/08 01:41:10;;;;;;;10.15;5.22;;;;;;;6.79;36.16;101958.88;5000200;28;20196;-75
2022/03/08 01:43:36;;;;;;;11.98;5.20;;;;;;;6.88;36.27;101960.91;5032097;28;20109;-75
2022/03/08 01:46:03;;;;;;;11.65;5.80;;;;;;;6.82;36.34;101954.19;5017334;28;20513;-75
2022/03/08 01:48:30;;;;;;;11.35;5.40;;;;;;;6.74;36.59;101959.19;5011667;28;20081;-75
2022/03/08 01:50:58;;;;;;;15.07;5.30;;;;;;;6.80;36.39;101956.09;5020440;28;20573;-75
2022/03/08 01:53:24;;;;;;;11.38;4.90;;;;;;;6.74;36.31;101955.66;5027857;28;20157;-75
2022/03/08 01:55:51;;;;;;;12.32;5.18;;;;;;;6.88;36.18;101952.91;5012307;28;20505;-75
2022/03/08 01:58:23;;;;;;;14.57;5.22;;;;;;;6.78;36.28;101950.03;5019715;28;20069;-75
2022/03/08 02:00:49;;;;;;;14.07;5.10;;;;;;;6.64;36.56;101953.63;5032601;28;20061;-75
2022/03/08 02:03:16;;;;;;;9.65;5.32;;;;;;;6.71;36.40;101956.75;5029578;28;20049;-75
2022/03/08 02:09:23;;;;;;;10.30;5.45;;;;;;;6.64;36.69;101945.63;5029455;28;20496;-75
2022/03/08 02:11:50;;;;;;;10.88;5.25;;;;;;;6.61;36.75;101950.31;5019709;28;20073;-75
2022/03/08 02:14:17;;;;;;;11.10;4.88;;;;;;;6.64;36.77;101942.97;5023001;28;20129;-74
2022/03/08 02:16:45;;;;;;;12.98;5.30;;;;;;;6.60;36.84;101944.13;5026335;28;20084;-75
2022/03/08 02:19:13;;;;;;;9.93;5.20;;;;;;;6.76;36.73;101941.25;5031101;28;20060;-75
2022/03/08 02:21:40;;;;;;;14.25;5.20;;;;;;;6.80;36.47;101944.56;5028322;28;20057;-75
2022/03/08 02:24:07;;;;;;;14.02;4.70;;;;;;;6.53;37.08;101940.19;5022092;28;20136;-75
2022/03/08 02:26:33;;;;;;;13.68;5.55;;;;;;;6.76;36.59;101943.09;5018923;28;20044;-75
2022/03/08 02:29:03;;;;;;;16.02;5.40;;;;;;;6.76;36.57;101937.75;5011707;28;20060;-75
2022/03/08 02:31:30;;;;;;;13.45;5.45;;;;;;;6.73;36.84;101938.81;5030395;28;20135;-74
2022/03/08 02:33:56;;;;;;;11.27;5.40;;;;;;;6.61;36.99;101939.66;5024597;28;20436;-74
2022/03/08 02:36:23;;;;;;;8.30;4.95;;;;;;;6.64;36.76;101942.97;5015080;28;20073;-74
2022/03/08 02:38:50;;;;;;;10.52;5.18;;;;;;;6.64;36.84;101944.78;5032040;28;20111;-74
2022/03/08 02:41:16;;;;;;;14.07;5.65;;;;;;;6.50;37.25;101935.06;5023788;28;20144;-74
2022/03/08 02:43:43;;;;;;;12.15;5.20;;;;;;;6.75;36.70;101934.22;5021287;28;20064;-74
2022/03/08 02:46:10;;;;;;;13.52;5.32;;;;;;;6.78;36.78;101947.34;5013092;28;20080;-74
2022/03/08 02:48:36;;;;;;;15.38;5.80;;;;;;;6.73;37.01;101941.47;5030989;28;20392;-74
2022/03/08 02:51:03;;;;;;;11.88;5.03;;;;;;;6.59;36.81;101950.41;5024607;28;20054;-75
2022/03/08 02:53:30;;;;;;;11.65;5.30;;;;;;;6.58;36.90;101951.38;5007404;28;20541;-75
2022/03/08 02:55:57;;;;;;;14.70;5.50;;;;;;;6.60;37.15;101943.25;5011361;28;20085;-75
2022/03/08 02:58:24;;;;;;;12.10;5.47;;;;;;;6.59;36.79;101945.06;5014732;28;20065;-75
2022/03/08 03:00:52;;;;;;;14.38;5.30;;;;;;;6.58;37.12;101940.72;5018723;28;20044;-75
2022/03/08 03:03:19;;;;;;;15.13;5.40;;;;;;;6.53;37.04;101953.53;5028718;28;20065;-75
2022/03/08 03:05:45;;;;;;;16.70;5.28;;;;;;;6.53;37.27;101953.53;5015589;28;20048;-75
2022/03/08 03:08:12;;;;;;;12.38;5.25;;;;;;;6.54;37.30;101949.88;5023027;28;20051;-75
2022/03/08 03:10:39;;;;;;;13.02;5.22;;;;;;;6.57;37.20;101957.69;5034902;28;20049;-75
2022/03/08 03:13:06;;;;;;;11.32;4.82;;;;;;;6.51;37.33;101955.41;5035025;28;20128;-75
2022/03/08 03:15:32;;;;;;;13.00;5.40;;;;;;;6.44;37.43;101960.31;5035334;28;20057;-75
2022/03/08 03:18:00;;;;;;;11.98;5.25;;;;;;;6.37;37.57;101964.34;5019461;28;20045;-75
2022/03/08 03:20:27;;;;;;;14.77;5.55;;;;;;;6.37;37.44;101952.84;5015679;28;20485;-75
2022/03/08 03:22:54;;;;;;;14.27;5.63;;;;;;;6.33;37.58;101959.34;5015039;28;20129;-75
2022/03/08 03:25:20;;;;;;;10.65;5.40;;;;;;;6.35;37.45;101955.59;5015677;28;20501;-74
2022/03/08 03:27:47;;;;;;;11.52;5.07;;;;;;;6.27;37.57;101962.41;5019141;28;20133;-74
2022/03/08 03:30:16;;;;;;;12.65;5.28;;;;;;;6.29;37.72;101961.34;5026751;28;20051;-75
2022/03/08 03:32:43;;;;;;;12.55;5.60;;;;;;;6.34;37.62;101958.38;5030575;28;20061;-75
2022/03/08 03:35:10;;;;;;;13.25;5.50;;;;;;;6.37;37.84;101966.16;5015225;28;20045;-75
2022/03/08 03:37:37;;;;;;;10.77;5.40;;;;;;;6.42;37.58;101964.03;5018050;28;20509;-74
2022/03/08 03:40:05;;;;;;;10.57;5.00;;;;;;;6.29;37.90;101955.13;5014608;28;20128;-74
2022/03/08 03:42:32;;;;;;;12.93;5.05;;;;;;;6.30;38.18;101954.19;5015059;28;20089;-74
2022/03/08 03:44:58;;;;;;;10.32;4.80;;;;;;;6.34;37.89;101951.22;5015451;28;20096;-74
2022/03/08 03:47:25;;;;;;;14.30;5.32;;;;;;;6.33;38.22;101952.19;5017445;28;20052;-75
2022/03/08 03:49:51;;;;;;;12.57;5.03;;;;;;;6.22;38.43;101950.19;5014941;28;20075;-74
2022/03/08 03:52:18;;;;;;;14.00;4.53;;;;;;;6.30;38.19;101949.72;5018695;28;20475;-74
2022/03/08 03:54:44;;;;;;;13.20;5.25;;;;;;;6.35;38.29;101952.06;5034156;28;20487;-74
2022/03/08 03:57:12;;;;;;;10.95;5.50;;;;;;;6.16;38.65;101953.28;5032139;28;20520;-74
2022/03/08 03:59:39;;;;;;;14.52;5.53;;;;;;;6.20;38.51;101949.44;5029898;28;20045;-73
2022/03/08 04:02:06;;;;;;;13.25;5.07;;;;;;;6.22;38.69;101947.53;5032728;28;20045;-74
2022/03/08 04:04:33;;;;;;;11.07;5.10;;;;;;;6.13;38.74;101949.94;5021394;28;20053;-73
2022/03/08 04:06:59;;;;;;;11.65;5.50;;;;;;;6.23;38.51;101941.25;5014304;28;20077;-73
2022/03/08 04:09:26;;;;;;;10.95;4.95;;;;;;;6.21;38.77;101945.81;5031481;28;20051;-74
2022/03/08 04:11:52;;;;;;;12.32;5.00;;;;;;;6.26;38.49;101947.38;5034138;28;20088;-74
2022/03/08 04:14:19;;;;;;;11.85;4.78;;;;;;;6.32;38.22;101944.28;5032679;28;20136;-74
2022/03/08 04:16:45;;;;;;;14.82;5.70;;;;;;;6.26;38.33;101947.38;5013162;28;20041;-73
2022/03/08 04:19:12;;;;;;;13.52;5.00;;;;;;;6.24;38.02;101945.59;5015762;28;20060;-74
2022/03/08 04:21:38;;;;;;;11.18;5.35;;;;;;;6.15;38.17;101948.91;5021798;28;20121;-73
2022/03/08 04:24:05;;;;;;;11.63;5.50;;;;;;;6.26;37.84;101956.22;5021725;28;20052;-74
2022/03/08 04:26:31;;;;;;;13.25;5.68;;;;;;;6.23;37.62;101954.56;5034044;28;20069;-74
2022/03/08 04:28:58;;;;;;;13.63;5.28;;;;;;;6.04;38.32;101951.41;5027542;28;20085;-73
2022/03/08 04:31:24;;;;;;;12.70;5.28;;;;;;;6.09;38.13;101948.44;5033988;28;20143;-74
2022/03/08 04:33:51;;;;;;;14.60;5.68;;;;;;;6.04;38.09;101943.41;5024185;28;20049;-73
2022/03/08 04:36:17;;;;;;;12.50;5.55;;;;;;;5.97;38.29;101950.09;5032139;28;20052;-73
2022/03/08 04:38:44;;;;;;;16.33;5.38;;;;;;;5.87;38.32;101954.31;5032733;28;20179;-73
2022/03/08 04:41:10;;;;;;;11.85;5.00;;;;;;;5.94;38.30;101951.16;5033042;28;20468;-73
2022/03/08 04:43:37;;;;;;;13.07;5.53;;;;;;;5.85;38.25;101957.09;5020366;28;20470;-74
2022/03/08 04:46:03;;;;;;;18.50;5.32;;;;;;;5.86;38.51;101958.78;5013967;28;20049;-74
2022/03/08 04:48:31;;;;;;;16.73;6.15;;;;;;;5.75;38.59;101953.31;5016527;28;20046;-73
2022/03/08 04:50:57;;;;;;;14.38;5.25;;;;;;;5.77;38.59;101951.41;5030821;28;20128;-73
2022/03/08 04:53:23;;;;;;;15.25;5.50;;;;;;;5.81;38.45;101957.38;5034005;28;20446;-74
2022/03/08 04:55:50;;;;;;;14.63;5.70;;;;;;;5.66;38.63;101954.72;5033234;28;20052;-74
2022/03/08 04:58:17;;;;;;;10.70;5.55;;;;;;;5.69;38.60;101954.53;5032325;28;20069;-74
2022/03/08 05:00:43;;;;;;;11.63;5.30;;;;;;;5.58;38.84;101959.69;5031689;28;20076;-74
2022/03/08 05:03:10;;;;;;;12.27;6.15;;;;;;;5.69;38.64;101967.84;5013267;28;20054;-73
2022/03/08 05:05:38;;;;;;;10.50;5.35;;;;;;;5.81;38.46;101968.88;5025657;28;20099;-73
2022/03/08 05:08:05;;;;;;;17.05;5.13;;;;;;;5.76;38.57;101974.50;5033803;28;20054;-73
2022/03/08 05:10:32;;;;;;;18.30;5.35;;;;;;;5.80;38.68;101968.97;5017319;28;20049;-73
2022/03/08 05:13:00;;;;;;;14.98;5.32;;;;;;;5.80;38.65;101974.28;5027495;28;20041;-73
2022/03/08 05:15:27;;;;;;;11.77;5.63;;;;;;;5.79;38.63;101977.94;5013075;28;20050;-73
2022/03/08 05:17:53;;;;;;;13.85;6.25;;;;;;;5.86;38.37;101974.75;5013248;28;20141;-72
2022/03/08 05:20:20;;;;;;;13.48;5.53;;;;;;;5.83;38.61;101976.75;5016275;28;20057;-74
2022/03/08 05:22:46;;;;;;;9.75;4.90;;;;;;;5.86;38.51;101981.91;5021329;28;20113;-72
2022/03/08 05:25:13;;;;;;;13.13;6.15;;;;;;;5.84;38.78;101971.34;5018893;28;20042;-73
2022/03/08 05:27:40;;;;;;;16.58;6.88;;;;;;;5.85;38.61;101983.72;5011801;28;20476;-73
2022/03/08 05:30:07;;;;;;;15.40;6.13;;;;;;;5.80;38.53;101984.94;5012928;28;20049;-73
2022/03/08 05:32:33;;;;;;;14.68;6.32;;;;;;;5.82;38.32;101991.03;5013320;28;20081;-73
2022/03/08 05:35:01;;;;;;;20.15;6.43;;;;;;;5.72;38.31;101993.44;5009929;28;20132;-73
2022/03/08 05:37:27;;;;;;;11.55;5.82;;;;;;;5.70;38.73;101990.88;5013486;28;20042;-73
2022/03/08 05:39:54;;;;;;;12.65;6.35;;;;;;;5.71;38.81;102002.38;5012989;28;20129;-73
2022/03/08 05:42:20;;;;;;;22.10;6.50;;;;;;;5.70;38.80;102006.84;5012240;28;20121;-74
2022/03/08 05:44:47;;;;;;;18.20;6.25;;;;;;;5.71;38.82;102016.53;5022703;28;20128;-73
2022/03/08 05:47:13;;;;;;;14.80;5.90;;;;;;;5.77;38.82;102013.50;5012466;28;20446;-73
2022/03/08 05:49:40;;;;;;;13.98;5.65;;;;;;;5.76;38.84;102011.78;5012975;28;20073;-73
2022/03/08 05:52:07;;;;;;;12.93;6.18;;;;;;;5.67;39.09;102015.03;5012059;28;20133;-73
2022/03/08 05:54:33;;;;;;;15.93;6.40;;;;;;;5.65;39.07;102008.94;5006934;28;20468;-73
2022/03/08 05:57:00;;;;;;;16.65;5.32;;;;;;;5.66;38.95;102018.63;5012265;28;20073;-73
2022/03/08 05:59:26;;;;;;;14.48;6.70;;;;;;;5.70;38.72;102020.16;5011761;28;20132;-73
2022/03/08 06:01:53;;;;;;;14.90;6.90;;;;;;;5.70;39.29;102017.50;5015609;28;20061;-74
2022/03/08 06:04:19;;;;;;;13.85;6.20;;;;;;;5.73;38.92;102019.09;5019197;28;20065;-73
2022/03/08 06:06:46;;;;;;;16.65;6.85;;;;;;;5.64;39.49;102017.88;5016261;28;20486;-73
2022/03/08 06:09:13;;;;;;;18.67;6.28;;;;;;;5.60;39.02;102004.88;5012238;28;20060;-73
2022/03/08 06:11:39;;;;;;;13.50;6.07;;;;;;;5.64;39.36;102007.25;5021876;28;20060;-73
2022/03/08 06:14:06;;;;;;;13.00;5.95;;;;;;;5.68;39.30;102011.41;5013715;28;20081;-73
2022/03/08 06:16:32;;;;;;;15.02;7.03;;;;;;;5.82;39.23;102015.00;5016149;28;20073;-73
2022/03/08 06:18:59;;;;;;;13.27;6.53;;;;;;;5.80;39.34;102003.59;5019883;28;20046;-73
2022/03/08 06:21:30;;;;;;;;;;;;;;;5.80;39.49;102011.56;5016900;28;20452;-73
2022/03/08 06:23:57;;;;;;;13.77;6.10;;;;;;;5.68;39.95;102003.41;5021837;28;19960;-72
2022/03/08 06:26:23;;;;;;;14.45;5.95;;;;;;;5.75;39.66;102002.09;5019497;28;20144;-72
2022/03/08 06:28:50;;;;;;;16.40;6.40;;;;;;;5.89;39.65;102003.00;5014766;28;20056;-72
2022/03/08 06:31:16;;;;;;;13.07;6.13;;;;;;;5.90;39.49;102002.91;5022832;28;20551;-72
2022/03/08 06:33:43;;;;;;;14.70;6.47;;;;;;;5.97;39.12;102006.03;5017620;28;20053;-72
2022/03/08 06:36:09;;;;;;;13.95;6.50;;;;;;;6.08;39.16;102000.00;5018024;28;20055;-73
2022/03/08 06:38:36;;;;;;;15.23;5.72;;;;;;;6.03;39.18;101997.66;5017964;28;20071;-72
2022/03/08 06:41:03;;;;;;;14.23;6.63;;;;;;;5.92;39.60;101998.34;5012396;28;20065;-73
2022/03/08 06:43:29;;;;;;;13.40;6.30;;;;;;;5.94;39.50;101988.47;5020498;28;20133;-73
2022/03/08 06:45:55;;;;;;;14.80;6.97;;;;;;;5.75;40.11;101988.75;5007896;28;20045;-72
2022/03/08 06:48:22;;;;;;;15.50;7.00;;;;;;;5.82;39.91;101999.88;5028606;28;20381;-73
2022/03/08 06:50:50;;;;;;;19.05;7.10;;;;;;;5.89;39.74;101993.22;5019880;28;20391;-72
2022/03/08 06:53:16;;;;;;;14.25;6.55;;;;;;;6.20;39.34;101997.41;5027277;28;20067;-72
2022/03/08 06:55:43;;;;;;;14.32;7.45;;;;;;;6.26;39.17;101998.84;5012571;28;20054;-73
2022/03/08 06:58:10;;;;;;;17.23;6.75;;;;;;;6.08;39.42;101998.22;5019339;28;20077;-74
2022/03/08 07:00:36;;;;;;;16.48;6.57;;;;;;;5.87;39.96;101992.47;5011039;28;20073;-73
2022/03/08 07:03:03;;;;;;;17.63;7.43;;;;;;;5.22;41.36;101990.34;5016608;28;20181;-73
2022/03/08 07:05:29;;;;;;;22.98;7.38;;;;;;;5.43;41.06;101997.94;5024912;28;20056;-73
2022/03/08 07:07:56;;;;;;;15.30;7.32;;;;;;;5.45;41.05;102001.34;5016546;28;20076;-74
2022/03/08 07:10:22;;;;;;;13.85;7.05;;;;;;;5.62;40.33;102001.13;5017008;28;20111;-73
2022/03/08 07:12:49;;;;;;;13.65;7.43;;;;;;;6.28;39.83;102009.41;5010729;28;20099;-74
2022/03/08 07:15:15;;;;;;;16.45;7.22;;;;;;;6.23;39.40;102018.53;5014663;28;20149;-74
2022/03/08 07:17:46;;;;;;;15.75;6.93;;;;;;;6.82;38.59;102014.69;5030135;28;20052;-74
2022/03/08 07:20:13;;;;;;;13.48;7.22;;;;;;;7.78;37.11;102018.63;5030460;28;20053;-75
2022/03/08 07:22:40;;;;;;;13.68;6.93;;;;;;;8.20;36.09;102018.31;5026491;28;20482;-74
2022/03/08 07:25:09;;;;;;;14.68;6.28;;;;;;;8.97;34.33;102018.72;5011559;28;20501;-74
2022/03/08 07:27:35;;;;;;;13.02;6.70;;;;;;;9.57;33.45;102017.59;5020225;28;20400;-74
2022/03/08 07:30:04;;;;;;;14.55;6.30;;;;;;;10.22;32.23;102013.25;5012420;28;20045;-74
2022/03/08 07:32:31;;;;;;;15.35;6.55;;;;;;;10.68;31.24;102022.84;5030236;28;20049;-74
2022/03/08 07:34:57;;;;;;;12.05;6.00;;;;;;;10.77;31.42;102016.72;5031078;28;20584;-74
2022/03/08 07:37:24;;;;;;;12.13;6.32;;;;;;;11.50;29.73;102022.13;5013832;28;20124;-75
2022/03/08 07:39:51;;;;;;;11.65;6.40;;;;;;;11.53;29.62;102021.84;5030967;28;20128;-74
2022/03/08 07:42:18;;;;;;;11.88;6.25;;;;;;;12.05;28.92;102023.47;5030829;28;20046;-74
2022/03/08 07:44:44;;;;;;;11.88;6.43;;;;;;;12.38;28.45;102033.03;5017288;28;20049;-74
2022/03/08 07:47:11;;;;;;;15.98;6.70;;;;;;;12.93;27.89;102020.84;5009857;28;20046;-75
2022/03/08 07:49:37;;;;;;;13.68;5.82;;;;;;;13.10;27.30;102028.19;5010948;28;20069;-74
2022/03/08 07:52:04;;;;;;;11.13;5.93;;;;;;;13.03;27.32;102035.13;5016039;28;20512;-75
2022/03/08 07:54:31;;;;;;;11.00;6.35;;;;;;;14.03;25.86;102029.13;5013938;28;20132;-74
2022/03/08 07:56:57;;;;;;;11.73;6.05;;;;;;;14.12;25.59;102028.22;5013373;28;20054;-75
2022/03/08 07:59:26;;;;;;;9.52;5.65;;;;;;;13.24;26.19;102022.31;5014530;28;20381;-75
2022/03/08 08:01:52;;;;;;;13.27;5.60;;;;;;;13.52;26.28;102023.22;5014887;28;20128;-76
2022/03/08 08:04:19;;;;;;;15.63;7.32;;;;;;;13.96;25.22;102026.16;5017292;28;20100;-76
2022/03/08 08:06:45;;;;;;;16.05;8.18;;;;;;;14.62;24.56;102019.59;5014506;28;20455;-76
2022/03/08 08:09:12;;;;;;;12.13;5.97;;;;;;;14.48;24.94;102012.03;5014014;28;20050;-76
2022/03/08 08:11:39;;;;;;;11.27;6.28;;;;;;;14.67;24.70;102017.28;5013598;28;20112;-76
2022/03/08 08:14:06;;;;;;;11.85;6.00;;;;;;;15.18;23.88;102015.66;5014970;28;20461;-76
2022/03/08 08:16:32;;;;;;;9.65;5.25;;;;;;;14.91;23.66;102007.69;5014922;28;20050;-75
2022/03/08 08:18:59;;;;;;;12.02;5.25;;;;;;;14.91;23.40;102007.69;5014116;28;20050;-76
2022/03/08 08:21:26;;;;;;;7.80;3.97;;;;;;;15.23;22.58;101996.28;5014324;28;20442;-74
2022/03/08 08:23:55;;;;;;;12.13;6.45;;;;;;;15.22;22.87;101992.72;5013603;28;20137;-75
2022/03/08 08:26:21;;;;;;;12.95;5.20;;;;;;;15.16;22.65;101989.81;5016811;28;20136;-75
2022/03/08 08:28:48;;;;;;;8.98;5.03;;;;;;;15.53;22.52;101986.78;5012418;28;20080;-75
2022/03/08 08:31:14;;;;;;;11.30;4.85;;;;;;;14.50;23.51;101983.88;5027365;28;20064;-75
2022/03/08 08:33:40;;;;;;;10.00;4.38;;;;;;;15.99;21.95;101992.75;5020369;28;20050;-76
2022/03/08 08:36:07;;;;;;;14.02;4.80;;;;;;;15.85;21.95;101996.09;5017479;28;20049;-75
2022/03/08 08:38:33;;;;;;;10.77;3.95;;;;;;;15.51;21.76;101996.94;5015301;28;20046;-76
2022/03/08 08:41:00;;;;;;;10.23;4.32;;;;;;;15.58;21.93;102006.09;5014548;28;20132;-75
2022/03/08 08:43:27;;;;;;;8.10;3.67;;;;;;;15.80;21.18;102004.69;5013904;28;20069;-75
2022/03/08 08:45:54;;;;;;;8.45;3.65;;;;;;;15.64;21.50;102010.00;5014439;28;20121;-75
2022/03/08 08:48:22;;;;;;;5.80;3.17;;;;;;;15.62;21.45;102014.72;5014986;28;20124;-75
2022/03/08 08:50:48;;;;;;;8.05;3.58;;;;;;;15.95;21.22;102023.84;5015199;28;20052;-76
2022/03/08 08:53:15;;;;;;;10.88;3.72;;;;;;;16.17;21.31;102023.25;5017179;28;20045;-75
2022/03/08 08:55:41;;;;;;;6.03;3.47;;;;;;;16.42;20.76;102021.41;5017320;28;20533;-76
2022/03/08 08:58:08;;;;;;;10.95;3.88;;;;;;;15.96;21.30;102017.44;5018354;28;20129;-77
2022/03/08 09:00:35;;;;;;;11.52;4.97;;;;;;;16.07;21.62;102016.28;5015383;28;20128;-75
2022/03/08 09:03:02;;;;;;;7.13;3.30;;;;;;;16.51;20.76;102014.19;5032387;28;20041;-76
2022/03/08 09:05:34;;;;;;;7.95;4.10;;;;;;;16.24;21.12;102019.88;5030551;28;20045;-76
2022/03/08 09:08:00;;;;;;;7.30;3.13;;;;;;;16.18;20.78;102018.66;5031237;28;20041;-76
2022/03/08 09:10:26;;;;;;;8.05;3.80;;;;;;;16.06;20.90;102017.31;5026520;28;20131;-76
2022/03/08 09:12:53;;;;;;;9.65;4.00;;;;;;;15.41;21.21;102015.97;5033464;28;20072;-76
2022/03/08 09:15:21;;;;;;;9.32;3.60;;;;;;;15.01;22.14;102013.84;5016210;28;20092;-76
2022/03/08 09:17:48;;;;;;;8.10;3.72;;;;;;;15.88;21.07;101996.59;5012667;28;20405;-76
2022/03/08 09:20:15;;;;;;;9.20;3.70;;;;;;;16.11;20.89;102006.81;5013234;28;20046;-76
2022/03/08 09:22:47;;;;;;;8.35;3.95;;;;;;;16.54;20.76;102008.44;5013412;28;20050;-76
2022/03/08 09:25:13;;;;;;;10.20;4.13;;;;;;;15.96;21.24;102014.72;5016333;28;20045;-76
2022/03/08 09:27:40;;;;;;;7.65;3.92;;;;;;;16.29;20.62;102014.78;5013586;28;20118;-76
2022/03/08 09:30:07;;;;;;;9.60;3.88;;;;;;;15.88;21.56;102009.28;5013525;28;20049;-76
2022/03/08 09:32:34;;;;;;;9.82;4.25;;;;;;;15.64;21.50;102012.72;5013583;28;20434;-77
2022/03/08 09:35:00;;;;;;;10.48;3.95;;;;;;;15.48;21.86;102016.19;5012753;28;20070;-75
2022/03/08 09:37:27;;;;;;;7.82;4.07;;;;;;;15.85;21.25;102023.16;5012471;28;20073;-76
2022/03/08 09:39:53;;;;;;;7.97;3.25;;;;;;;15.31;21.46;102025.22;5024958;28;20045;-75
2022/03/08 09:42:21;;;;;;;6.95;3.65;;;;;;;14.80;21.72;102016.06;5005468;28;20616;-75
2022/03/08 09:44:48;;;;;;;6.07;2.75;;;;;;;15.13;21.47;102018.00;5032788;28;20072;-76
2022/03/08 09:47:16;;;;;;;4.60;2.72;;;;;;;15.35;21.06;102016.59;5013410;28;20046;-75
2022/03/08 09:49:43;;;;;;;6.03;2.75;;;;;;;15.07;21.31;102024.03;5032315;28;20408;-75
2022/03/08 09:52:10;;;;;;;9.70;2.55;;;;;;;15.08;21.41;102023.03;5031822;28;20050;-76
2022/03/08 09:54:37;;;;;;;6.35;3.05;;;;;;;14.54;21.68;102022.22;5032560;28;20049;-76
2022/03/08 09:57:08;;;;;;;8.05;2.75;;;;;;;15.61;20.60;102013.03;5032429;28;20124;-76
2022/03/08 09:59:35;;;;;;;5.95;2.42;;;;;;;15.46;20.48;102012.78;5005462;28;20485;-76
2022/03/08 10:02:03;;;;;;;5.82;2.47;;;;;;;15.79;20.25;102010.28;5032823;28;20105;-76
2022/03/08 10:04:30;;;;;;;6.60;2.63;;;;;;;16.53;19.89;102017.56;5032244;28;20053;-76
2022/03/08 10:07:16;;;;;;;7.75;2.80;;;;;;;17.48;19.14;101998.84;5032415;28;20041;-74
2022/03/08 10:09:57;;;;;;;6.13;2.67;;;;;;;17.43;18.92;102000.38;5027639;28;20133;-75
2022/03/08 10:12:24;;;;;;;6.32;2.97;;;;;;;17.75;18.36;102003.00;5007751;28;20111;-74
2022/03/08 10:14:51;;;;;;;5.93;2.50;;;;;;;16.92;18.91;102000.66;5030585;28;20072;-76
2022/03/08 10:17:37;;;;;;;4.65;2.60;;;;;;;17.40;18.86;101998.84;5011839;28;20124;-74
2022/03/08 10:20:10;;;;;;;5.90;2.95;;;;;;;17.31;18.68;101995.31;5016011;28;20053;-75
2022/03/08 10:22:39;;;;;;;4.38;2.40;;;;;;;17.22;18.44;101990.06;5013038;28;20128;-76
2022/03/08 10:25:17;;;;;;;7.18;2.78;;;;;;;17.60;18.37;102000.16;5012981;28;20050;-75
2022/03/08 10:27:56;;;;;;;6.47;2.60;;;;;;;18.00;18.05;101992.84;5012799;28;20102;-76
2022/03/08 10:30:24;;;;;;;5.72;2.67;;;;;;;18.10;17.71;101987.19;5013184;28;20535;-76
2022/03/08 10:33:02;;;;;;;6.80;2.72;;;;;;;18.94;17.17;101990.81;5012288;28;20046;-76
2022/03/08 10:35:31;;;;;;;5.32;2.35;;;;;;;18.17;17.13;101990.03;5012197;28;20497;-75
2022/03/08 10:38:05;;;;;;;5.25;2.00;;;;;;;17.64;17.78;101988.94;5012885;28;20053;-75
2022/03/08 10:40:34;;;;;;;5.50;2.10;;;;;;;17.62;17.74;101986.41;5013110;28;20042;-76
2022/03/08 10:43:06;;;;;;;6.55;2.10;;;;;;;17.48;17.74;101982.56;5011551;28;20133;-76
2022/03/08 10:45:36;;;;;;;3.60;2.05;;;;;;;16.94;18.35;101981.50;5011968;28;20069;-76
2022/03/08 10:48:07;;;;;;;5.03;1.88;;;;;;;17.95;17.84;101973.50;5011587;28;20046;-75
2022/03/08 10:50:36;;;;;;;3.58;2.20;;;;;;;17.04;18.39;101974.03;5011648;28;20128;-75
2022/03/08 10:53:04;;;;;;;3.35;2.30;;;;;;;17.93;17.78;101972.84;5012083;28;20124;-75
2022/03/08 10:55:36;;;;;;;8.35;2.65;;;;;;;18.33;17.35;101970.91;5012348;28;20050;-75
2022/03/08 10:58:07;;;;;;;5.90;2.65;;;;;;;18.04;17.52;101969.72;5011729;28;20056;-76
2022/03/08 11:00:37;;;;;;;4.88;2.28;;;;;;;17.34;18.26;101977.88;5011977;28;20038;-76
2022/03/08 11:03:09;;;;;;;7.57;2.33;;;;;;;17.68;17.96;101974.00;5012527;28;20157;-76
2022/03/08 11:05:48;;;;;;;4.88;2.20;;;;;;;17.62;17.73;101975.56;5014590;28;20280;-76
2022/03/08 11:08:16;;;;;;;3.75;1.85;;;;;;;18.11;17.40;101969.03;5013276;28;20050;-76
2022/03/08 11:10:44;;;;;;;5.07;1.98;;;;;;;18.24;17.60;101969.31;5012455;28;20080;-76
2022/03/08 11:13:12;;;;;;;5.72;1.90;;;;;;;18.21;17.58;101966.94;5011273;28;20145;-76
2022/03/08 11:15:40;;;;;;;3.28;2.00;;;;;;;17.58;18.09;101964.22;5011261;28;20140;-76
2022/03/08 11:18:10;;;;;;;4.15;1.75;;;;;;;16.76;18.71;101962.72;5011432;28;20145;-77
2022/03/08 11:20:38;;;;;;;6.80;2.00;;;;;;;15.62;19.87;101961.47;5012463;28;20125;-77
2022/03/08 11:23:05;;;;;;;4.50;2.25;;;;;;;16.67;19.13;101970.81;4994630;28;20138;-76
2022/03/08 11:25:40;;;;;;;6.15;2.10;;;;;;;17.19;18.94;101963.28;4995762;28;20113;-76
2022/03/08 11:28:13;;;;;;;4.18;2.13;;;;;;;17.03;18.69;101954.19;5015465;28;20052;-75